createdAt,value
2017-05-05T00:00:03.284Z,8.27
2017-05-05T00:01:03.263Z,8.28
2017-05-05T00:02:03.246Z,8.27
2017-05-05T00:03:03.220Z,8.24
2017-05-05T00:04:03.201Z,8.27
2017-05-05T00:05:02.868Z,8.22
2017-05-05T00:06:03.158Z,8.25
2017-05-05T00:07:03.122Z,8.18
2017-05-05T00:08:03.104Z,8.22
2017-05-05T00:09:03.069Z,8.31
2017-05-05T00:10:03.116Z,8.43
2017-05-05T00:11:02.721Z,8.43
2017-05-05T00:12:03.050Z,8.5
2017-05-05T00:13:02.983Z,8.7
2017-05-05T00:14:02.953Z,8.68
2017-05-05T00:15:02.927Z,8.7
2017-05-05T00:16:02.908Z,8.67
2017-05-05T00:17:02.888Z,8.76
2017-05-05T00:18:02.861Z,8.75
2017-05-05T00:19:02.837Z,8.79
2017-05-05T00:20:02.810Z,8.75
2017-05-05T00:21:02.800Z,8.8
2017-05-05T00:22:02.768Z,8.71
2017-05-05T00:23:02.747Z,8.54
2017-05-05T00:24:02.710Z,8.54
2017-05-05T00:25:02.694Z,8.67
2017-05-05T00:26:02.673Z,8.75
2017-05-05T00:27:02.646Z,8.7
2017-05-05T00:28:02.630Z,8.67
2017-05-05T00:29:02.610Z,8.71
2017-05-05T00:30:02.273Z,8.64
2017-05-05T00:31:02.560Z,8.54
2017-05-05T00:32:02.228Z,8.58
2017-05-05T00:33:02.205Z,8.49
2017-05-05T00:34:02.530Z,8.49
2017-05-05T00:35:02.469Z,8.67
2017-05-05T00:36:02.442Z,8.68
2017-05-05T00:37:02.413Z,8.75
2017-05-05T00:38:02.387Z,8.67
2017-05-05T00:39:02.373Z,8.86
2017-05-05T00:40:02.342Z,8.93
2017-05-05T00:41:02.332Z,8.88
2017-05-05T00:42:01.990Z,8.86
2017-05-05T00:43:02.277Z,8.91
2017-05-05T00:44:02.243Z,8.93
2017-05-05T00:45:02.225Z,8.88
2017-05-05T00:46:02.208Z,8.94
2017-05-05T00:47:02.176Z,9.1
2017-05-05T00:48:02.167Z,9.19
2017-05-05T00:49:02.130Z,9.08
2017-05-05T00:50:02.106Z,9.15
2017-05-05T00:51:02.085Z,8.91
2017-05-05T00:52:02.099Z,8.89
2017-05-05T00:53:02.031Z,8.82
2017-05-05T00:54:02.010Z,8.7
2017-05-05T00:55:01.681Z,8.73
2017-05-05T00:56:01.655Z,8.7
2017-05-05T00:57:01.991Z,8.65
2017-05-05T00:58:01.925Z,8.65
2017-05-05T00:59:01.906Z,8.55
2017-05-05T01:00:01.860Z,8.58
2017-05-05T01:01:01.845Z,8.61
2017-05-05T01:02:01.820Z,8.54
2017-05-05T01:03:01.809Z,8.5
2017-05-05T01:04:01.775Z,8.5
2017-05-05T01:05:01.751Z,8.54
2017-05-05T01:06:01.733Z,8.5
2017-05-05T01:07:01.710Z,8.49
2017-05-05T01:08:01.695Z,8.46
2017-05-05T01:09:01.663Z,8.49
2017-05-05T01:10:01.627Z,8.45
2017-05-05T01:11:01.309Z,8.42
2017-05-05T01:12:01.586Z,8.32
2017-05-05T01:13:01.564Z,8.39
2017-05-05T01:14:01.549Z,8.43
2017-05-05T01:15:01.512Z,8.34
2017-05-05T01:16:01.489Z,8.39
2017-05-05T01:17:01.476Z,8.36
2017-05-05T01:18:01.459Z,8.29
2017-05-05T01:19:01.432Z,8.31
2017-05-05T01:20:01.393Z,8.31
2017-05-05T01:21:01.079Z,8.29
2017-05-05T01:22:01.368Z,8.24
2017-05-05T01:23:01.333Z,8.27
2017-05-05T01:24:01.307Z,8.32
2017-05-05T01:25:01.290Z,8.25
2017-05-05T01:26:01.272Z,8.25
2017-05-05T01:27:01.243Z,8.25
2017-05-05T01:28:01.210Z,8.24
2017-05-05T01:29:01.189Z,8.27
2017-05-05T01:30:01.164Z,8.18
2017-05-05T01:31:01.133Z,8.18
2017-05-05T01:32:01.114Z,8.22
2017-05-05T01:33:01.082Z,8.27
2017-05-05T01:34:01.073Z,8.22
2017-05-05T01:35:00.745Z,8.27
2017-05-05T01:36:01.023Z,8.21
2017-05-05T01:37:00.990Z,8.25
2017-05-05T01:38:00.974Z,8.32
2017-05-05T01:39:00.939Z,8.25
2017-05-05T01:40:00.925Z,8.24
2017-05-05T01:41:00.896Z,8.37
2017-05-05T01:42:00.867Z,8.22
2017-05-05T01:43:00.850Z,8.25
2017-05-05T01:44:00.832Z,8.25
2017-05-05T01:45:00.805Z,8.24
2017-05-05T01:46:00.782Z,8.29
2017-05-05T01:47:00.805Z,8.21
2017-05-05T01:48:00.732Z,8.29
2017-05-05T01:49:00.398Z,8.39
2017-05-05T01:50:00.682Z,8.32
2017-05-05T01:51:00.355Z,8.28
2017-05-05T01:52:00.686Z,8.37
2017-05-05T01:53:00.613Z,8.36
2017-05-05T01:54:00.588Z,8.37
2017-05-05T01:55:00.278Z,8.4
2017-05-05T01:56:00.546Z,8.42
2017-05-05T01:57:00.516Z,8.29
2017-05-05T01:58:00.197Z,8.4
2017-05-05T01:59:00.171Z,8.28
2017-05-05T02:00:00.440Z,8.28
2017-05-05T02:01:00.431Z,8.27
2017-05-05T02:02:00.395Z,8.24
2017-05-05T02:03:00.387Z,8.22
2017-05-05T02:04:00.402Z,8.18
2017-05-05T02:05:00.037Z,8.2
2017-05-05T02:06:00.300Z,8.18
2017-05-05T02:07:00.277Z,8.17
2017-05-05T02:08:00.255Z,8.22
2017-05-05T02:09:00.228Z,8.22
2017-05-05T02:09:59.907Z,8.22
2017-05-05T02:11:00.186Z,8.22
2017-05-05T02:12:00.170Z,8.24
2017-05-05T02:13:00.139Z,8.27
2017-05-05T02:14:00.124Z,8.24
2017-05-05T02:15:00.099Z,8.25
2017-05-05T02:16:00.065Z,8.2
2017-05-05T02:17:00.044Z,8.22
2017-05-05T02:18:00.065Z,8.24
2017-05-05T02:18:59.988Z,8.29
2017-05-05T02:19:59.973Z,8.24
2017-05-05T02:20:59.944Z,8.24
2017-05-05T02:21:59.920Z,8.21
2017-05-05T02:23:00.151Z,8.22
2017-05-05T02:23:59.879Z,8.27
2017-05-05T02:24:59.861Z,8.27
2017-05-05T02:25:59.831Z,8.28
2017-05-05T02:26:59.802Z,8.24
2017-05-05T02:27:59.791Z,8.14
2017-05-05T02:28:59.760Z,8.2
2017-05-05T02:29:59.729Z,8.25
2017-05-05T02:30:59.411Z,8.18
2017-05-05T02:31:59.080Z,8.2
2017-05-05T02:32:59.656Z,8.18
2017-05-05T02:34:00.637Z,8.18
2017-05-05T02:34:59.612Z,8.2
2017-05-05T02:35:59.598Z,8.21
2017-05-05T02:36:59.560Z,8.24
2017-05-05T02:37:59.542Z,8.17
2017-05-05T02:38:59.530Z,8.18
2017-05-05T02:39:59.491Z,8.24
2017-05-05T02:40:59.473Z,8.17
2017-05-05T02:41:59.150Z,8.17
2017-05-05T02:42:59.476Z,8.17
2017-05-05T02:43:59.402Z,8.22
2017-05-05T02:44:59.372Z,8.25
2017-05-05T02:45:59.382Z,8.24
2017-05-05T02:46:59.328Z,8.21
2017-05-05T02:47:59.307Z,8.17
2017-05-05T02:48:59.285Z,8.18
2017-05-05T02:49:59.256Z,8.18
2017-05-05T02:50:59.237Z,8.2
2017-05-05T02:51:59.217Z,8.18
2017-05-05T02:52:58.889Z,8.2
2017-05-05T02:53:59.163Z,8.24
2017-05-05T02:54:59.144Z,8.13
2017-05-05T02:55:58.813Z,8.02
2017-05-05T02:56:58.842Z,8.06
2017-05-05T02:57:59.081Z,8.04
2017-05-05T02:58:59.047Z,8.04
2017-05-05T02:59:59.027Z,8.03
2017-05-05T03:00:58.999Z,8.14
2017-05-05T03:01:58.983Z,8.1
2017-05-05T03:02:58.949Z,8.04
2017-05-05T03:03:58.926Z,8.03
2017-05-05T03:04:58.908Z,8.04
2017-05-05T03:05:58.874Z,8.06
2017-05-05T03:06:58.861Z,8.07
2017-05-05T03:07:58.890Z,8.02
2017-05-05T03:08:58.811Z,8
2017-05-05T03:09:58.793Z,8.03
2017-05-05T03:10:58.751Z,8.1
2017-05-05T03:11:58.731Z,8.09
2017-05-05T03:12:58.719Z,7.99
2017-05-05T03:13:58.379Z,7.95
2017-05-05T03:14:58.660Z,7.94
2017-05-05T03:15:58.640Z,8
2017-05-05T03:16:58.609Z,7.96
2017-05-05T03:17:58.353Z,7.96
2017-05-05T03:18:58.569Z,8
2017-05-05T03:19:58.540Z,7.96
2017-05-05T03:20:58.216Z,7.96
2017-05-05T03:21:58.496Z,8
2017-05-05T03:22:58.161Z,7.96
2017-05-05T03:23:58.498Z,7.99
2017-05-05T03:24:58.423Z,8.03
2017-05-05T03:25:58.450Z,8
2017-05-05T03:26:58.379Z,8
2017-05-05T03:27:58.355Z,8.03
2017-05-05T03:28:58.325Z,8.02
2017-05-05T03:29:58.005Z,7.95
2017-05-05T03:30:58.280Z,8
2017-05-05T03:31:58.254Z,8.04
2017-05-05T03:32:58.230Z,7.99
2017-05-05T03:33:58.264Z,7.99
2017-05-05T03:34:58.184Z,8
2017-05-05T03:35:58.212Z,7.95
2017-05-05T03:36:58.183Z,7.99
2017-05-05T03:37:58.114Z,7.99
2017-05-05T03:38:58.089Z,8.02
2017-05-05T03:39:58.074Z,7.99
2017-05-05T03:40:58.032Z,8.02
2017-05-05T03:41:58.009Z,7.96
2017-05-05T03:42:57.988Z,7.95
2017-05-05T03:43:57.963Z,7.99
2017-05-05T03:44:57.945Z,8.02
2017-05-05T03:45:57.916Z,7.99
2017-05-05T03:46:57.906Z,8
2017-05-05T03:47:57.874Z,7.99
2017-05-05T03:48:57.550Z,8
2017-05-05T03:49:58.079Z,8.1
2017-05-05T03:50:57.801Z,8
2017-05-05T03:51:57.786Z,7.99
2017-05-05T03:52:57.777Z,7.96
2017-05-05T03:53:57.733Z,8
2017-05-05T03:54:57.700Z,8.02
2017-05-05T03:55:57.677Z,7.99
2017-05-05T03:56:57.656Z,8
2017-05-05T03:57:57.628Z,7.95
2017-05-05T03:58:57.608Z,8.02
2017-05-05T03:59:57.591Z,8
2017-05-05T04:00:57.556Z,8.02
2017-05-05T04:01:57.540Z,8.03
2017-05-05T04:02:57.512Z,8
2017-05-05T04:03:57.542Z,7.99
2017-05-05T04:04:57.469Z,7.96
2017-05-05T04:05:57.439Z,8.13
2017-05-05T04:06:57.419Z,8.07
2017-05-05T04:07:57.399Z,8.1
2017-05-05T04:08:57.369Z,8.09
2017-05-05T04:09:57.343Z,8
2017-05-05T04:10:57.321Z,8.04
2017-05-05T04:11:57.294Z,7.99
2017-05-05T04:12:57.271Z,8.03
2017-05-05T04:13:57.257Z,8
2017-05-05T04:14:57.225Z,7.99
2017-05-05T04:15:57.202Z,7.92
2017-05-05T04:16:57.191Z,7.94
2017-05-05T04:17:57.155Z,8.02
2017-05-05T04:18:57.145Z,8
2017-05-05T04:19:57.107Z,8.02
2017-05-05T04:20:57.078Z,7.94
2017-05-05T04:21:57.060Z,8.02
2017-05-05T04:22:57.033Z,8
2017-05-05T04:23:57.068Z,8.02
2017-05-05T04:24:57.003Z,8
2017-05-05T04:25:56.962Z,8.03
2017-05-05T04:26:56.941Z,7.99
2017-05-05T04:27:56.916Z,8.1
2017-05-05T04:28:56.896Z,8.12
2017-05-05T04:29:56.881Z,8.17
2017-05-05T04:30:56.842Z,8.1
2017-05-05T04:31:56.821Z,8.03
2017-05-05T04:32:56.497Z,7.96
2017-05-05T04:33:56.818Z,8
2017-05-05T04:34:56.449Z,8.03
2017-05-05T04:35:56.735Z,8
2017-05-05T04:36:56.710Z,8
2017-05-05T04:37:56.681Z,7.95
2017-05-05T04:38:56.701Z,8.06
2017-05-05T04:39:56.626Z,8.04
2017-05-05T04:40:56.605Z,8
2017-05-05T04:41:56.634Z,7.94
2017-05-05T04:42:56.559Z,8
2017-05-05T04:43:56.531Z,8.04
2017-05-05T04:44:56.516Z,7.99
2017-05-05T04:45:56.485Z,8.04
2017-05-05T04:46:56.465Z,8.02
2017-05-05T04:47:56.433Z,8.04
2017-05-05T04:48:56.415Z,8.07
2017-05-05T04:49:56.093Z,8.03
2017-05-05T04:50:56.372Z,8.17
2017-05-05T04:51:56.338Z,7.99
2017-05-05T04:52:56.316Z,8.14
2017-05-05T04:53:56.285Z,8.13
2017-05-05T04:54:56.272Z,8.06
2017-05-05T04:55:56.243Z,8
2017-05-05T04:56:56.232Z,8.02
2017-05-05T04:57:56.188Z,8.03
2017-05-05T04:58:56.182Z,8.12
2017-05-05T04:59:56.201Z,8.14
2017-05-05T05:00:56.123Z,8
2017-05-05T05:01:56.096Z,7.96
2017-05-05T05:02:56.129Z,8.06
2017-05-05T05:03:56.059Z,8.06
2017-05-05T05:04:56.076Z,8.06
2017-05-05T05:05:56.014Z,8.03
2017-05-05T05:06:55.984Z,7.96
2017-05-05T05:07:55.962Z,8.06
2017-05-05T05:08:55.935Z,8.04
2017-05-05T05:09:55.918Z,8.06
2017-05-05T05:10:55.587Z,8.04
2017-05-05T05:11:55.856Z,8.02
2017-05-05T05:12:55.841Z,8.04
2017-05-05T05:13:55.816Z,7.96
2017-05-05T05:14:55.793Z,7.95
2017-05-05T05:15:55.764Z,8.03
2017-05-05T05:16:55.741Z,8.1
2017-05-05T05:17:55.717Z,8
2017-05-05T05:18:55.703Z,8.13
2017-05-05T05:19:55.377Z,7.96
2017-05-05T05:20:55.645Z,7.96
2017-05-05T05:21:55.723Z,7.96
2017-05-05T05:22:55.596Z,7.95
2017-05-05T05:23:55.572Z,8.02
2017-05-05T05:24:55.556Z,8
2017-05-05T05:25:55.543Z,7.96
2017-05-05T05:26:55.499Z,8
2017-05-05T05:27:55.478Z,7.99
2017-05-05T05:28:55.449Z,7.96
2017-05-05T05:29:55.433Z,8.03
2017-05-05T05:30:55.458Z,7.95
2017-05-05T05:31:55.380Z,7.99
2017-05-05T05:32:55.362Z,7.94
2017-05-05T05:33:55.354Z,7.96
2017-05-05T05:34:55.311Z,8.1
2017-05-05T05:35:55.289Z,8.03
2017-05-05T05:36:55.266Z,8.02
2017-05-05T05:37:55.243Z,8.03
2017-05-05T05:38:55.220Z,8.02
2017-05-05T05:39:55.197Z,7.99
2017-05-05T05:40:55.178Z,7.99
2017-05-05T05:41:54.869Z,8.06
2017-05-05T05:42:55.126Z,7.99
2017-05-05T05:43:55.094Z,8.02
2017-05-05T05:44:55.074Z,8.04
2017-05-05T05:45:55.046Z,8.06
2017-05-05T05:46:55.021Z,8.12
2017-05-05T05:47:55.005Z,8.06
2017-05-05T05:48:54.981Z,8.09
2017-05-05T05:49:54.952Z,8.04
2017-05-05T05:50:54.928Z,8.14
2017-05-05T05:51:54.907Z,8.06
2017-05-05T05:52:54.880Z,8.13
2017-05-05T05:53:54.907Z,8.07
2017-05-05T05:54:54.841Z,8.07
2017-05-05T05:55:54.812Z,8.1
2017-05-05T05:56:54.833Z,8.13
2017-05-05T05:57:54.772Z,8.04
2017-05-05T05:58:54.735Z,8.09
2017-05-05T05:59:54.721Z,8.17
2017-05-05T06:00:54.698Z,8.07
2017-05-05T06:01:54.682Z,8.14
2017-05-05T06:02:54.656Z,8.14
2017-05-05T06:03:54.871Z,8.03
2017-05-05T06:04:54.610Z,8.12
2017-05-05T06:05:54.569Z,8.1
2017-05-05T06:06:53.948Z,8.09
2017-05-05T06:07:54.526Z,8.1
2017-05-05T06:08:54.505Z,8.1
2017-05-05T06:09:54.185Z,8.13
2017-05-05T06:10:54.460Z,8.07
2017-05-05T06:11:54.424Z,8.1
2017-05-05T06:12:54.413Z,8.09
2017-05-05T06:13:54.389Z,8.13
2017-05-05T06:14:54.358Z,8.12
2017-05-05T06:15:54.332Z,8.04
2017-05-05T06:16:54.302Z,8.04
2017-05-05T06:17:54.289Z,8
2017-05-05T06:18:54.316Z,7.99
2017-05-05T06:19:54.234Z,8.07
2017-05-05T06:20:54.254Z,8
2017-05-05T06:21:54.186Z,8.13
2017-05-05T06:22:54.210Z,7.96
2017-05-05T06:23:54.197Z,7.96
2017-05-05T06:24:54.115Z,7.96
2017-05-05T06:25:53.802Z,7.94
2017-05-05T06:26:54.068Z,7.96
2017-05-05T06:27:53.749Z,8.02
2017-05-05T06:28:54.023Z,8.03
2017-05-05T06:29:54.259Z,8.04
2017-05-05T06:30:53.973Z,8.07
2017-05-05T06:31:53.958Z,7.99
2017-05-05T06:32:53.931Z,8.03
2017-05-05T06:33:53.616Z,7.95
2017-05-05T06:34:53.882Z,8.07
2017-05-05T06:35:53.855Z,8.13
2017-05-05T06:36:53.828Z,8.02
2017-05-05T06:37:53.811Z,8.02
2017-05-05T06:38:53.786Z,8.03
2017-05-05T06:39:53.763Z,7.96
2017-05-05T06:40:53.743Z,7.96
2017-05-05T06:41:53.408Z,7.99
2017-05-05T06:42:53.735Z,8.09
2017-05-05T06:43:53.668Z,8.13
2017-05-05T06:44:53.641Z,8.09
2017-05-05T06:45:53.617Z,8.17
2017-05-05T06:46:53.600Z,8.03
2017-05-05T06:47:53.263Z,8.22
2017-05-05T06:48:53.551Z,8.24
2017-05-05T06:49:53.522Z,8.25
2017-05-05T06:50:53.500Z,8.32
2017-05-05T06:51:53.472Z,8.24
2017-05-05T06:52:53.472Z,8.31
2017-05-05T06:53:53.473Z,8.28
2017-05-05T06:54:53.413Z,8.25
2017-05-05T06:55:53.379Z,8.32
2017-05-05T06:56:53.360Z,8.28
2017-05-05T06:57:53.037Z,8.24
2017-05-05T06:58:53.317Z,8.28
2017-05-05T06:59:53.289Z,8.22
2017-05-05T07:00:53.275Z,8.28
2017-05-05T07:01:53.239Z,8.2
2017-05-05T07:02:53.221Z,8.25
2017-05-05T07:03:53.201Z,8.22
2017-05-05T07:04:53.176Z,8.28
2017-05-05T07:05:53.149Z,8.27
2017-05-05T07:06:53.122Z,8.32
2017-05-05T07:07:53.100Z,8.25
2017-05-05T07:08:53.076Z,8.22
2017-05-05T07:09:53.051Z,8.24
2017-05-05T07:10:53.028Z,8.29
2017-05-05T07:11:53.004Z,8.36
2017-05-05T07:12:53.026Z,8.34
2017-05-05T07:13:52.957Z,8.46
2017-05-05T07:14:52.934Z,8.49
2017-05-05T07:15:52.916Z,8.5
2017-05-05T07:16:53.098Z,8.58
2017-05-05T07:17:52.564Z,8.52
2017-05-05T07:18:52.553Z,8.63
2017-05-05T07:19:52.512Z,8.5
2017-05-05T07:20:52.837Z,8.64
2017-05-05T07:21:52.784Z,8.63
2017-05-05T07:22:52.759Z,8.68
2017-05-05T07:23:52.719Z,8.67
2017-05-05T07:24:52.709Z,8.67
2017-05-05T07:25:52.681Z,8.7
2017-05-05T07:26:52.695Z,8.71
2017-05-05T07:27:52.623Z,8.67
2017-05-05T07:28:52.597Z,8.54
2017-05-05T07:29:52.578Z,8.6
2017-05-05T07:30:52.554Z,8.57
2017-05-05T07:31:52.547Z,8.46
2017-05-05T07:32:52.506Z,8.5
2017-05-05T07:33:52.487Z,8.42
2017-05-05T07:34:52.459Z,8.45
2017-05-05T07:35:52.428Z,8.57
2017-05-05T07:36:52.420Z,8.45
2017-05-05T07:37:52.395Z,8.46
2017-05-05T07:38:52.377Z,8.47
2017-05-05T07:39:52.043Z,8.52
2017-05-05T07:40:52.017Z,8.52
2017-05-05T07:41:52.019Z,8.5
2017-05-05T07:42:52.293Z,8.55
2017-05-05T07:43:52.256Z,8.52
2017-05-05T07:44:52.223Z,8.5
2017-05-05T07:45:52.203Z,8.57
2017-05-05T07:46:52.182Z,8.47
2017-05-05T07:47:52.162Z,8.47
2017-05-05T07:48:52.127Z,8.55
2017-05-05T07:49:52.109Z,8.46
2017-05-05T07:50:52.093Z,8.47
2017-05-05T07:51:52.059Z,8.54
2017-05-05T07:52:52.035Z,8.52
2017-05-05T07:53:52.065Z,8.47
2017-05-05T07:54:51.994Z,8.47
2017-05-05T07:55:51.968Z,8.55
2017-05-05T07:56:51.944Z,8.57
2017-05-05T07:57:51.921Z,8.54
2017-05-05T07:58:51.903Z,8.54
2017-05-05T07:59:51.876Z,8.6
2017-05-05T08:00:51.903Z,8.52
2017-05-05T08:01:51.825Z,8.6
2017-05-05T08:02:51.503Z,8.54
2017-05-05T08:03:51.785Z,8.54
2017-05-05T08:04:51.758Z,8.57
2017-05-05T08:05:51.740Z,8.63
2017-05-05T08:06:51.712Z,8.55
2017-05-05T08:07:51.694Z,8.55
2017-05-05T08:08:51.664Z,8.57
2017-05-05T08:09:51.635Z,8.54
2017-05-05T08:10:51.614Z,8.67
2017-05-05T08:11:51.594Z,8.67
2017-05-05T08:12:51.569Z,8.64
2017-05-05T08:13:51.546Z,8.67
2017-05-05T08:14:51.523Z,8.7
2017-05-05T08:15:51.551Z,8.75
2017-05-05T08:16:51.726Z,8.68
2017-05-05T08:17:51.453Z,8.78
2017-05-05T08:18:51.429Z,8.82
2017-05-05T08:19:51.417Z,8.71
2017-05-05T08:20:51.083Z,8.82
2017-05-05T08:21:51.060Z,8.76
2017-05-05T08:22:51.337Z,8.76
2017-05-05T08:23:51.364Z,8.8
2017-05-05T08:24:51.535Z,8.78
2017-05-05T08:25:51.263Z,8.79
2017-05-05T08:26:51.278Z,8.85
2017-05-05T08:27:51.220Z,8.91
2017-05-05T08:28:51.209Z,8.93
2017-05-05T08:29:51.176Z,8.94
2017-05-05T08:30:51.149Z,8.98
2017-05-05T08:31:51.124Z,9.12
2017-05-05T08:32:51.106Z,9.15
2017-05-05T08:33:51.089Z,9.12
2017-05-05T08:34:51.053Z,9.12
2017-05-05T08:35:51.041Z,9.22
2017-05-05T08:36:51.022Z,9.22
2017-05-05T08:37:50.995Z,9.19
2017-05-05T08:38:50.983Z,9.24
2017-05-05T08:39:50.638Z,9.26
2017-05-05T08:40:50.916Z,9.22
2017-05-05T08:41:50.954Z,9.26
2017-05-05T08:42:50.875Z,9.3
2017-05-05T08:43:50.549Z,9.38
2017-05-05T08:44:50.829Z,9.24
2017-05-05T08:45:50.811Z,9.34
2017-05-05T08:46:50.784Z,9.34
2017-05-05T08:47:50.802Z,9.34
2017-05-05T08:48:50.740Z,9.38
2017-05-05T08:49:50.724Z,9.38
2017-05-05T08:50:50.696Z,9.41
2017-05-05T08:51:50.670Z,9.44
2017-05-05T08:52:50.641Z,9.41
2017-05-05T08:53:50.631Z,9.37
2017-05-05T08:54:50.600Z,9.41
2017-05-05T08:55:50.587Z,9.5
2017-05-05T08:56:50.559Z,9.41
2017-05-05T08:57:50.536Z,9.42
2017-05-05T08:58:50.509Z,9.32
2017-05-05T08:59:50.553Z,9.44
2017-05-05T09:00:50.461Z,9.34
2017-05-05T09:01:50.442Z,9.4
2017-05-05T09:02:50.468Z,9.26
2017-05-05T09:03:50.395Z,9.34
2017-05-05T09:04:50.374Z,9.26
2017-05-05T09:05:50.354Z,9.38
2017-05-05T09:06:50.328Z,9.32
2017-05-05T09:07:50.361Z,9.42
2017-05-05T09:08:49.990Z,9.4
2017-05-05T09:09:50.265Z,9.38
2017-05-05T09:10:50.238Z,9.38
2017-05-05T09:11:50.213Z,9.4
2017-05-05T09:12:50.199Z,9.37
2017-05-05T09:13:50.169Z,9.38
2017-05-05T09:14:50.140Z,9.34
2017-05-05T09:15:50.191Z,9.32
2017-05-05T09:16:50.153Z,9.34
2017-05-05T09:17:50.132Z,9.35
2017-05-05T09:18:50.056Z,9.34
2017-05-05T09:19:50.028Z,9.24
2017-05-05T09:20:50.012Z,9.26
2017-05-05T09:21:49.986Z,9.17
2017-05-05T09:22:49.962Z,9.22
2017-05-05T09:23:49.944Z,9.15
2017-05-05T09:24:49.665Z,9.06
2017-05-05T09:25:49.913Z,9.13
2017-05-05T09:26:49.873Z,9.19
2017-05-05T09:27:49.846Z,9.27
2017-05-05T09:28:49.827Z,9.26
2017-05-05T09:29:49.800Z,9.26
2017-05-05T09:30:49.788Z,9.27
2017-05-05T09:31:49.761Z,9.23
2017-05-05T09:32:49.728Z,9.24
2017-05-05T09:33:49.711Z,9.22
2017-05-05T09:34:49.686Z,9.1
2017-05-05T09:35:49.363Z,9.13
2017-05-05T09:36:49.341Z,9.2
2017-05-05T09:37:49.618Z,9.13
2017-05-05T09:38:49.599Z,9.12
2017-05-05T09:39:49.579Z,9.06
2017-05-05T09:40:49.550Z,9.16
2017-05-05T09:41:49.537Z,9.06
2017-05-05T09:42:49.512Z,9.08
2017-05-05T09:43:49.481Z,9.01
2017-05-05T09:44:49.457Z,9.12
2017-05-05T09:45:49.431Z,9.03
2017-05-05T09:46:49.417Z,9.06
2017-05-05T09:47:49.084Z,9.04
2017-05-05T09:48:49.369Z,9.15
2017-05-05T09:49:49.341Z,9.12
2017-05-05T09:50:49.320Z,9.03
2017-05-05T09:51:48.995Z,9.08
2017-05-05T09:52:49.278Z,9.03
2017-05-05T09:53:49.257Z,9.03
2017-05-05T09:54:49.254Z,9.04
2017-05-05T09:55:49.205Z,9.03
2017-05-05T09:56:49.185Z,8.98
2017-05-05T09:57:49.165Z,9.01
2017-05-05T09:58:49.133Z,9.01
2017-05-05T09:59:49.109Z,8.98
2017-05-05T10:00:49.086Z,8.97
2017-05-05T10:01:49.122Z,9.03
2017-05-05T10:02:49.048Z,8.94
2017-05-05T10:03:49.025Z,8.97
2017-05-05T10:04:48.999Z,8.94
2017-05-05T10:05:48.980Z,8.93
2017-05-05T10:06:48.955Z,9
2017-05-05T10:07:48.977Z,9.08
2017-05-05T10:08:48.915Z,9.1
2017-05-05T10:09:48.884Z,9.16
2017-05-05T10:10:48.866Z,9.13
2017-05-05T10:11:48.845Z,9.1
2017-05-05T10:12:48.841Z,9.13
2017-05-05T10:13:48.792Z,9.12
2017-05-05T10:14:48.766Z,9.1
2017-05-05T10:15:48.740Z,9.08
2017-05-05T10:16:48.416Z,9.15
2017-05-05T10:17:48.731Z,9.12
2017-05-05T10:18:48.682Z,9.1
2017-05-05T10:19:48.657Z,9.17
2017-05-05T10:20:48.659Z,9.13
2017-05-05T10:21:48.603Z,9.1
2017-05-05T10:22:48.586Z,9.1
2017-05-05T10:23:48.562Z,9.12
2017-05-05T10:24:48.535Z,8.98
2017-05-05T10:25:48.514Z,9.01
2017-05-05T10:26:48.490Z,9.01
2017-05-05T10:27:48.467Z,8.98
2017-05-05T10:28:48.452Z,9.01
2017-05-05T10:29:48.443Z,9.03
2017-05-05T10:30:48.406Z,9
2017-05-05T10:31:48.074Z,9.03
2017-05-05T10:32:48.357Z,9.01
2017-05-05T10:33:48.337Z,9.12
2017-05-05T10:34:48.312Z,9.12
2017-05-05T10:35:47.980Z,9.06
2017-05-05T10:36:48.261Z,9.17
2017-05-05T10:37:48.237Z,9.2
2017-05-05T10:38:47.908Z,9.26
2017-05-05T10:39:48.225Z,9.4
2017-05-05T10:40:48.167Z,9.4
2017-05-05T10:41:47.849Z,9.34
2017-05-05T10:42:48.123Z,9.3
2017-05-05T10:43:48.098Z,9.48
2017-05-05T10:44:48.072Z,9.49
2017-05-05T10:45:48.056Z,9.62
2017-05-05T10:46:48.030Z,9.68
2017-05-05T10:47:48.012Z,9.92
2017-05-05T10:48:47.978Z,9.95
2017-05-05T10:49:47.962Z,10.02
2017-05-05T10:50:48.241Z,10.07
2017-05-05T10:51:47.928Z,10.13
2017-05-05T10:52:47.903Z,10.18
2017-05-05T10:53:47.871Z,10.18
2017-05-05T10:54:48.158Z,10.25
2017-05-05T10:55:47.825Z,10.1
2017-05-05T10:56:47.806Z,10.18
2017-05-05T10:57:47.479Z,10.13
2017-05-05T10:58:47.761Z,10.1
2017-05-05T10:59:47.760Z,10.09
2017-05-05T11:00:47.721Z,10.24
2017-05-05T11:01:47.388Z,10.13
2017-05-05T11:02:47.675Z,10.24
2017-05-05T11:03:47.709Z,10.42
2017-05-05T11:04:47.622Z,10.35
2017-05-05T11:05:47.603Z,10.32
2017-05-05T11:06:47.578Z,10.35
2017-05-05T11:07:47.566Z,10.31
2017-05-05T11:08:47.237Z,10.42
2017-05-05T11:09:47.515Z,10.42
2017-05-05T11:10:47.494Z,10.35
2017-05-05T11:11:47.570Z,10.35
2017-05-05T11:12:47.501Z,10.31
2017-05-05T11:13:47.421Z,10.38
2017-05-05T11:14:47.408Z,10.47
2017-05-05T11:15:47.075Z,10.42
2017-05-05T11:16:47.364Z,10.26
2017-05-05T11:17:47.335Z,10.26
2017-05-05T11:18:47.311Z,10.26
2017-05-05T11:19:47.340Z,10.11
2017-05-05T11:20:47.269Z,9.96
2017-05-05T11:21:47.248Z,9.86
2017-05-05T11:22:47.228Z,9.75
2017-05-05T11:23:47.219Z,9.8
2017-05-05T11:24:47.179Z,9.63
2017-05-05T11:25:47.173Z,9.68
2017-05-05T11:26:47.135Z,9.65
2017-05-05T11:27:46.813Z,9.65
2017-05-05T11:28:47.096Z,9.73
2017-05-05T11:29:47.108Z,9.73
2017-05-05T11:30:47.047Z,9.74
2017-05-05T11:31:47.024Z,9.8
2017-05-05T11:32:46.999Z,9.75
2017-05-05T11:33:46.975Z,9.81
2017-05-05T11:34:46.962Z,9.93
2017-05-05T11:35:46.633Z,9.93
2017-05-05T11:36:46.920Z,9.96
2017-05-05T11:37:46.896Z,10.01
2017-05-05T11:38:46.863Z,10.06
2017-05-05T11:39:46.542Z,10.25
2017-05-05T11:40:46.826Z,10.18
2017-05-05T11:41:46.810Z,10.24
2017-05-05T11:42:46.788Z,10.25
2017-05-05T11:43:46.752Z,10.28
2017-05-05T11:44:46.738Z,10.36
2017-05-05T11:45:46.716Z,10.34
2017-05-05T11:46:46.688Z,10.29
2017-05-05T11:47:46.664Z,10.42
2017-05-05T11:48:46.651Z,10.46
2017-05-05T11:49:46.618Z,10.34
2017-05-05T11:50:46.598Z,10.36
2017-05-05T11:51:46.569Z,10.49
2017-05-05T11:52:46.552Z,10.47
2017-05-05T11:53:46.539Z,10.46
2017-05-05T11:54:46.508Z,10.43
2017-05-05T11:55:46.491Z,10.47
2017-05-05T11:56:46.527Z,10.47
2017-05-05T11:57:46.446Z,10.46
2017-05-05T11:58:46.423Z,10.31
2017-05-05T11:59:46.398Z,10.36
2017-05-05T12:00:46.421Z,10.24
2017-05-05T12:01:46.368Z,10.46
2017-05-05T12:02:46.024Z,10.46
2017-05-05T12:03:46.307Z,10.46
2017-05-05T12:04:46.332Z,10.51
2017-05-05T12:05:46.260Z,10.55
2017-05-05T12:06:46.245Z,10.62
2017-05-05T12:07:45.921Z,10.6
2017-05-05T12:08:46.194Z,10.66
2017-05-05T12:09:46.227Z,10.75
2017-05-05T12:10:46.157Z,10.78
2017-05-05T12:11:46.130Z,10.83
2017-05-05T12:12:46.105Z,10.98
2017-05-05T12:13:46.144Z,11.11
2017-05-05T12:14:46.060Z,11.27
2017-05-05T12:15:46.050Z,11.35
2017-05-05T12:16:46.027Z,11.42
2017-05-05T12:17:46.001Z,11.42
2017-05-05T12:18:45.974Z,11.53
2017-05-05T12:19:45.961Z,11.56
2017-05-05T12:20:45.938Z,11.69
2017-05-05T12:21:45.957Z,11.81
2017-05-05T12:22:45.896Z,11.77
2017-05-05T12:23:45.920Z,11.82
2017-05-05T12:24:45.902Z,11.78
2017-05-05T12:25:45.820Z,11.69
2017-05-05T12:26:45.806Z,11.63
2017-05-05T12:27:45.802Z,11.49
2017-05-05T12:28:45.763Z,11.49
2017-05-05T12:29:45.768Z,11.56
2017-05-05T12:30:45.722Z,11.53
2017-05-05T12:31:45.711Z,11.57
2017-05-05T12:32:45.677Z,11.59
2017-05-05T12:33:45.656Z,11.64
2017-05-05T12:34:45.345Z,11.72
2017-05-05T12:35:45.614Z,11.67
2017-05-05T12:36:45.591Z,11.72
2017-05-05T12:37:45.567Z,11.67
2017-05-05T12:38:45.561Z,11.77
2017-05-05T12:39:45.540Z,11.72
2017-05-05T12:40:45.517Z,11.69
2017-05-05T12:41:45.491Z,11.6
2017-05-05T12:42:45.473Z,11.6
2017-05-05T12:43:45.452Z,11.6
2017-05-05T12:44:45.439Z,11.64
2017-05-05T12:45:45.406Z,11.72
2017-05-05T12:46:45.392Z,11.82
2017-05-05T12:47:45.368Z,11.75
2017-05-05T12:48:45.358Z,11.74
2017-05-05T12:49:45.329Z,11.75
2017-05-05T12:50:45.330Z,11.72
2017-05-05T12:51:45.352Z,11.7
2017-05-05T12:52:45.269Z,11.72
2017-05-05T12:53:45.239Z,11.79
2017-05-05T12:54:45.213Z,11.79
2017-05-05T12:55:45.204Z,11.81
2017-05-05T12:56:45.180Z,11.67
2017-05-05T12:57:45.146Z,11.67
2017-05-05T12:58:45.179Z,11.49
2017-05-05T12:59:44.507Z,11.51
2017-05-05T13:00:44.796Z,11.48
2017-05-05T13:01:45.079Z,11.42
2017-05-05T13:02:44.747Z,11.36
2017-05-05T13:03:45.025Z,11.42
2017-05-05T13:04:44.702Z,11.39
2017-05-05T13:05:45.049Z,11.35
2017-05-05T13:06:44.956Z,11.45
2017-05-05T13:07:45.199Z,11.33
2017-05-05T13:08:44.926Z,11.39
2017-05-05T13:09:44.897Z,11.3
2017-05-05T13:10:44.914Z,11.12
2017-05-05T13:11:44.845Z,11.11
2017-05-05T13:12:44.822Z,11.17
2017-05-05T13:13:44.797Z,11.05
2017-05-05T13:14:44.480Z,11.02
2017-05-05T13:15:44.769Z,11.02
2017-05-05T13:16:44.732Z,10.99
2017-05-05T13:17:44.720Z,11.06
2017-05-05T13:18:44.397Z,11.01